Time;durP1;ratioP1;P1;durP2;ratioP2;P2;SDS_P1;SDS_P2;PMS_P1;PMS_P2;Temp;Humidity;BMP_temperature;BMP_pressure;BME280_temperature;BME280_humidity;BME280_pressure;Samples;Min_cycle;Max_cycle;Signal;HPM_P1;HPM_P2
2021/10/17 00:00:50;;;;;;;;;26.25;21.25;;;;;12.02;64.06;101710.59;4994934;28;58889;-76
2021/10/17 00:03:15;;;;;;;;;24.75;20.25;;;;;12.01;64.06;101704.41;4986776;28;45359;-75
2021/10/17 00:05:41;;;;;;;;;25.50;22.00;;;;;12.04;64.15;101720.38;4980845;28;52727;-73
2021/10/17 00:08:08;;;;;;;;;28.25;22.75;;;;;12.03;64.30;101705.34;4957172;28;45518;-74
2021/10/17 00:10:34;;;;;;;;;18.00;18.00;;;;;12.02;64.22;101702.66;4987841;28;47348;-74
2021/10/17 00:13:00;;;;;;;;;15.25;13.75;;;;;12.01;64.34;101708.84;5003071;28;45450;-74
2021/10/17 00:15:26;;;;;;;;;25.50;21.50;;;;;11.98;64.32;101712.28;4972858;28;45546;-75
2021/10/17 00:17:52;;;;;;;;;22.75;21.25;;;;;11.97;64.42;101713.16;4974487;28;45611;-75
2021/10/17 00:20:18;;;;;;;;;24.25;23.00;;;;;11.96;64.59;101713.13;4975365;28;47221;-75
2021/10/17 00:22:44;;;;;;;;;25.50;21.75;;;;;11.95;64.50;101706.06;4984301;28;45470;-74
2021/10/17 00:25:09;;;;;;;;;29.00;23.50;;;;;11.95;64.56;101703.44;4997780;28;45553;-74
2021/10/17 00:27:35;;;;;;;;;25.00;21.00;;;;;11.88;64.63;101697.13;4984931;28;45429;-74
2021/10/17 00:30:00;;;;;;;;;28.25;22.75;;;;;11.92;64.62;101706.00;4991884;28;46349;-74
2021/10/17 00:32:26;;;;;;;;;27.75;24.00;;;;;11.84;64.68;101695.28;4985906;28;45391;-73
2021/10/17 00:34:51;;;;;;;;;22.50;21.00;;;;;11.77;64.74;101681.00;4971905;28;45378;-75
2021/10/17 00:37:18;;;;;;;;;26.00;23.00;;;;;11.85;64.76;101699.69;4974165;28;45610;-74
2021/10/17 00:39:44;;;;;;;;;27.25;24.00;;;;;11.89;64.81;101712.13;4952382;28;46463;-74
2021/10/17 00:42:09;;;;;;;;;24.00;19.75;;;;;11.88;64.73;101715.66;4956420;28;45461;-73
2021/10/17 00:44:38;;;;;;;;;31.50;21.50;;;;;11.88;64.72;101714.72;4939948;28;54992;-74
2021/10/17 00:47:04;;;;;;;;;24.00;20.75;;;;;11.85;64.80;101712.94;4976106;28;45586;-73
2021/10/17 00:49:29;;;;;;;;;21.25;17.50;;;;;11.85;64.69;101714.69;4986491;28;45436;-73
2021/10/17 00:51:54;;;;;;;;;21.50;21.00;;;;;11.84;64.89;101712.91;4973188;28;58200;-75
2021/10/17 00:54:20;;;;;;;;;25.50;20.75;;;;;11.81;64.91;101705.75;5003538;28;49239;-74
2021/10/17 00:56:45;;;;;;;;;22.50;21.25;;;;;11.76;64.85;101691.53;4955693;28;54134;-73
2021/10/17 00:59:11;;;;;;;;;22.50;20.25;;;;;11.77;64.94;101695.97;4973643;28;46338;-75
2021/10/17 01:01:37;;;;;;;;;24.00;19.50;;;;;11.79;64.85;101699.56;4973409;28;45672;-73
2021/10/17 01:04:02;;;;;;;;;21.75;16.50;;;;;11.78;65.01;101700.41;4975494;28;45130;-74
2021/10/17 01:06:28;;;;;;;;;26.75;21.25;;;;;11.69;65.04;101690.53;4974249;28;45290;-73
2021/10/17 01:08:54;;;;;;;;;23.00;21.00;;;;;11.75;65.10;101698.59;4966625;28;45424;-74
2021/10/17 01:11:19;;;;;;;;;21.25;17.75;;;;;11.73;65.11;101697.69;4997595;28;45442;-74
2021/10/17 01:13:44;;;;;;;;;24.25;17.50;;;;;11.72;65.06;101693.25;4995111;28;53293;-74
2021/10/17 01:16:10;;;;;;;;;25.25;20.50;;;;;11.72;65.05;101700.31;4973214;28;47475;-74
2021/10/17 01:18:35;;;;;;;;;24.50;20.25;;;;;11.65;65.18;101693.06;4991692;28;59347;-73
2021/10/17 01:21:00;;;;;;;;;27.50;22.50;;;;;11.68;65.16;101701.97;4979583;28;53543;-75
2021/10/17 01:23:26;;;;;;;;;22.00;17.50;;;;;11.65;65.18;101690.44;4965629;28;47398;-74
2021/10/17 01:25:51;;;;;;;;;21.75;20.50;;;;;11.59;65.09;101683.25;4975353;28;52422;-74
2021/10/17 01:28:17;;;;;;;;;21.75;18.00;;;;;11.55;65.29;101684.06;4966305;28;63334;-73
2021/10/17 01:30:42;;;;;;;;;24.50;20.50;;;;;11.59;65.33;101692.97;4998944;28;45395;-75
2021/10/17 01:33:07;;;;;;;;;22.00;17.00;;;;;11.58;65.34;101699.13;4978242;28;48234;-74
2021/10/17 01:35:33;;;;;;;;;30.50;19.00;;;;;11.51;65.46;101688.41;4974825;28;49825;-74
2021/10/17 01:37:58;;;;;;;;;18.75;17.25;;;;;11.50;65.38;101685.72;4985630;28;45368;-73
2021/10/17 01:40:24;;;;;;;;;27.00;19.25;;;;;11.54;65.41;101698.16;4976474;28;45502;-74
2021/10/17 01:42:49;;;;;;;;;15.75;15.75;;;;;11.52;65.55;101695.47;4985045;28;45242;-73
2021/10/17 01:45:14;;;;;;;;;20.25;18.75;;;;;11.51;65.38;101693.69;5011839;28;50590;-74
2021/10/17 01:47:50;;;;;;;;;19.25;16.00;;;;;11.50;65.42;101693.66;4996325;28;60287;-74
2021/10/17 01:50:16;;;;;;;;;19.25;19.00;;;;;11.44;65.49;101685.59;4980286;28;45373;-74
2021/10/17 01:52:42;;;;;;;;;20.75;15.75;;;;;11.47;65.45;101691.84;4976400;28;45276;-73
2021/10/17 01:55:07;;;;;;;;;21.25;18.25;;;;;11.38;65.58;101677.53;4990825;28;45316;-73
2021/10/17 01:57:33;;;;;;;;;18.50;18.50;;;;;11.44;65.75;101697.06;4975510;28;46444;-74
2021/10/17 01:59:59;;;;;;;;;24.25;19.00;;;;;11.43;65.65;101690.00;4976149;28;45414;-73
2021/10/17 02:02:24;;;;;;;;;25.00;20.00;;;;;11.41;65.85;101686.44;4975703;28;54767;-75
2021/10/17 02:04:50;;;;;;;;;25.25;18.50;;;;;11.40;65.71;101692.59;4982039;28;49964;-73
2021/10/17 02:07:15;;;;;;;;;21.00;17.25;;;;;11.35;65.70;101680.13;4998984;28;52126;-74
2021/10/17 02:09:41;;;;;;;;;23.50;18.50;;;;;11.38;65.83;101688.09;4983195;28;55797;-74
2021/10/17 02:12:06;;;;;;;;;24.00;21.50;;;;;11.38;65.83;101690.75;4991380;28;45997;-73
2021/10/17 02:14:32;;;;;;;;;29.00;21.75;;;;;11.38;65.93;101680.19;4980701;28;45729;-74
2021/10/17 02:16:57;;;;;;;;;28.25;20.25;;;;;11.36;65.82;101677.50;4975035;28;46390;-74
2021/10/17 02:19:22;;;;;;;;;14.00;14.00;;;;;11.36;66.05;101676.63;4975635;28;57547;-74
2021/10/17 02:21:48;;;;;;;;;24.25;23.00;;;;;11.37;66.04;101671.34;4974727;28;55869;-75
2021/10/17 02:24:13;;;;;;;;;21.25;19.25;;;;;11.35;65.86;101670.44;4975375;28;49911;-75
2021/10/17 02:26:39;;;;;;;;;20.25;18.25;;;;;11.38;65.83;101682.81;4974713;28;59086;-74
2021/10/17 02:29:05;;;;;;;;;23.00;21.00;;;;;11.34;65.94;101678.31;5001015;28;45348;-73
2021/10/17 02:31:30;;;;;;;;;23.50;21.25;;;;;11.37;65.56;101683.69;4981924;28;45368;-74
2021/10/17 02:33:56;;;;;;;;;27.25;24.25;;;;;11.37;65.87;101695.16;4973650;28;53823;-74
2021/10/17 02:36:21;;;;;;;;;24.75;21.75;;;;;11.31;65.87;101681.81;4997858;28;46316;-74
2021/10/17 02:38:46;;;;;;;;;21.75;18.00;;;;;11.34;65.99;101684.50;4998568;28;45367;-73
2021/10/17 02:41:12;;;;;;;;;29.25;22.00;;;;;11.33;66.05;101682.72;4977188;28;55590;-72
2021/10/17 02:43:37;;;;;;;;;15.00;15.00;;;;;11.32;65.97;101683.59;4990809;28;45477;-73
2021/10/17 02:46:03;;;;;;;;;25.25;20.25;;;;;11.32;65.96;101680.06;4975125;28;46820;-73
2021/10/17 02:48:28;;;;;;;;;25.25;20.00;;;;;11.31;65.88;101671.22;4975564;28;45375;-72
2021/10/17 02:50:53;;;;;;;;;21.00;18.00;;;;;11.32;66.00;101677.41;4975026;28;50120;-72
2021/10/17 02:53:19;;;;;;;;;24.00;19.00;;;;;11.29;66.17;101672.94;4974451;28;53268;-74
2021/10/17 02:55:44;;;;;;;;;20.75;20.75;;;;;11.29;66.04;101667.63;4974792;28;57590;-73
2021/10/17 02:58:10;;;;;;;;;27.75;22.75;;;;;11.28;65.85;101672.03;4974945;28;60149;-73
2021/10/17 03:00:35;;;;;;;;;23.50;20.75;;;;;11.27;66.09;101672.00;4994217;28;45421;-74
2021/10/17 03:03:00;;;;;;;;;26.25;22.75;;;;;11.24;65.82;101667.56;4975515;28;45451;-73
2021/10/17 03:05:26;;;;;;;;;20.25;20.25;;;;;11.23;65.83;101671.03;5004763;28;45851;-74
2021/10/17 03:07:51;;;;;;;;;27.25;25.50;;;;;11.22;66.29;101678.94;4974880;28;57685;-73
2021/10/17 03:10:17;;;;;;;;;24.75;22.00;;;;;11.21;65.96;101683.34;4985771;28;45704;-73
2021/10/17 03:12:42;;;;;;;;;26.75;22.00;;;;;11.21;65.95;101682.47;5003081;28;45337;-73
2021/10/17 03:15:08;;;;;;;;;26.00;23.50;;;;;11.19;65.99;101660.41;4980328;28;51869;-73
2021/10/17 03:17:33;;;;;;;;;28.00;21.50;;;;;11.17;65.99;101659.44;4974720;28;45419;-73
2021/10/17 03:19:59;;;;;;;;;26.25;20.00;;;;;11.15;66.20;101675.28;4994420;28;45383;-73
2021/10/17 03:22:24;;;;;;;;;27.25;20.75;;;;;11.14;65.91;101676.16;4967877;28;53211;-73
2021/10/17 03:24:50;;;;;;;;;26.75;22.75;;;;;11.08;66.03;101657.53;4977090;28;46480;-73
2021/10/17 03:27:15;;;;;;;;;24.25;24.25;;;;;11.14;66.05;101667.34;4997619;28;61409;-73
2021/10/17 03:29:40;;;;;;;;;28.00;23.75;;;;;11.12;66.21;101667.28;4974520;28;45761;-74
2021/10/17 03:32:06;;;;;;;;;28.25;25.00;;;;;11.10;66.14;101662.84;4974636;28;53697;-74
2021/10/17 03:34:31;;;;;;;;;29.25;24.25;;;;;11.09;65.90;101647.84;4975901;28;46251;-73
2021/10/17 03:36:57;;;;;;;;;31.75;22.75;;;;;11.08;66.09;101646.03;4980957;28;59398;-73
2021/10/17 03:39:23;;;;;;;;;22.25;20.00;;;;;11.06;66.07;101653.94;4976306;28;45582;-73
2021/10/17 03:41:48;;;;;;;;;25.00;23.00;;;;;11.04;66.22;101652.13;4975352;28;45241;-73
2021/10/17 03:44:13;;;;;;;;;35.00;24.00;;;;;11.02;66.16;101657.34;4973920;28;54603;-74
2021/10/17 03:46:39;;;;;;;;;24.00;21.50;;;;;11.02;66.23;101655.63;4974348;28;55526;-74
2021/10/17 03:49:04;;;;;;;;;26.50;21.75;;;;;11.00;66.12;101635.31;4974967;28;45731;-72
2021/10/17 03:51:29;;;;;;;;;27.75;25.25;;;;;10.98;66.33;101651.13;5002014;28;45299;-73
2021/10/17 03:53:55;;;;;;;;;28.00;20.75;;;;;10.97;66.30;101652.00;4975212;28;59515;-72
2021/10/17 03:56:20;;;;;;;;;28.25;23.50;;;;;10.95;66.16;101651.03;4990602;28;49148;-75
2021/10/17 03:58:46;;;;;;;;;26.50;21.50;;;;;10.93;66.31;101652.78;5005582;28;45487;-73
2021/10/17 04:01:11;;;;;;;;;35.25;25.75;;;;;10.91;66.25;101651.81;4973839;28;52369;-73
2021/10/17 04:03:36;;;;;;;;;26.25;25.00;;;;;10.87;66.39;101646.47;4973644;28;61220;-72
2021/10/17 04:06:02;;;;;;;;;26.25;21.75;;;;;10.91;66.22;101649.19;4974471;28;49600;-72
2021/10/17 04:08:27;;;;;;;;;27.75;22.75;;;;;10.89;66.38;101652.66;4973929;28;50523;-74
2021/10/17 04:10:53;;;;;;;;;25.50;21.75;;;;;10.86;66.17;101648.19;4980798;28;45566;-72
2021/10/17 04:13:18;;;;;;;;;36.00;23.25;;;;;10.86;66.26;101636.72;4972718;28;61387;-72
2021/10/17 04:15:43;;;;;;;;;26.75;21.75;;;;;10.82;66.33;101641.06;4987298;28;58762;-72
2021/10/17 04:18:09;;;;;;;;;25.75;24.00;;;;;10.83;66.28;101650.78;4974361;28;45230;-73
2021/10/17 04:20:34;;;;;;;;;22.75;21.00;;;;;10.83;66.58;101647.25;4974128;28;45427;-74
2021/10/17 04:23:00;;;;;;;;;21.25;16.75;;;;;10.84;66.50;101644.63;4973998;28;58861;-74
2021/10/17 04:25:25;;;;;;;;;28.00;21.00;;;;;10.84;66.51;101641.09;4984162;28;45488;-73
2021/10/17 04:27:51;;;;;;;;;28.25;21.25;;;;;10.84;66.53;101643.75;4995694;28;45395;-73
2021/10/17 04:30:17;;;;;;;;;26.50;21.00;;;;;10.84;66.58;101641.09;4975931;28;45345;-72
2021/10/17 04:32:42;;;;;;;;;22.50;19.50;;;;;10.79;66.78;101635.72;4973803;28;47768;-74
2021/10/17 04:35:08;;;;;;;;;28.75;24.00;;;;;10.82;66.84;101641.06;4973416;28;55320;-73
2021/10/17 04:37:34;;;;;;;;;28.50;22.25;;;;;10.82;66.75;101643.72;4972893;28;45429;-73
2021/10/17 04:39:59;;;;;;;;;31.50;21.00;;;;;10.81;66.58;101644.53;4968428;28;45598;-73
2021/10/17 04:42:25;;;;;;;;;26.50;23.75;;;;;10.82;66.74;101649.00;4967320;28;46283;-73
2021/10/17 04:44:50;;;;;;;;;30.50;21.00;;;;;10.81;66.49;101648.94;5030969;28;45410;-73
2021/10/17 04:47:15;;;;;;;;;21.50;19.00;;;;;10.79;66.69;101653.31;4973843;28;46002;-72
2021/10/17 04:49:41;;;;;;;;;23.75;19.75;;;;;10.78;66.50;101647.13;4974093;28;54437;-73
2021/10/17 04:52:06;;;;;;;;;23.50;21.00;;;;;10.74;66.63;101656.72;4973259;28;61078;-73
2021/10/17 04:54:31;;;;;;;;;28.50;22.50;;;;;10.70;66.59;101646.94;4986727;28;56790;-72
2021/10/17 04:56:57;;;;;;;;;20.75;20.50;;;;;10.74;66.65;101655.84;4980433;28;50040;-74
2021/10/17 04:59:23;;;;;;;;;27.75;25.00;;;;;10.73;66.76;101669.91;4988395;28;45637;-74
2021/10/17 05:01:49;;;;;;;;;20.75;20.00;;;;;10.72;66.73;101665.50;4972921;28;45475;-74
2021/10/17 05:04:15;;;;;;;;;23.00;21.00;;;;;10.70;66.87;101660.16;4973113;28;45344;-73
2021/10/17 05:06:41;;;;;;;;;25.75;22.25;;;;;10.68;66.65;101664.50;4973174;28;46508;-72
2021/10/17 05:09:06;;;;;;;;;25.00;22.00;;;;;10.68;66.65;101663.63;4998464;28;53767;-73
2021/10/17 05:11:32;;;;;;;;;26.25;24.25;;;;;10.66;66.46;101663.59;4973792;28;46748;-73
2021/10/17 05:13:57;;;;;;;;;20.00;20.00;;;;;10.52;66.85;101630.66;4972689;28;52654;-73
2021/10/17 05:16:23;;;;;;;;;27.25;22.75;;;;;10.62;66.84;101650.28;4973012;28;45827;-74
2021/10/17 05:18:48;;;;;;;;;26.50;22.50;;;;;10.61;66.83;101653.78;4973218;28;51664;-72
2021/10/17 05:21:14;;;;;;;;;26.50;25.75;;;;;10.59;66.76;101658.09;4973677;28;61351;-72
2021/10/17 05:23:39;;;;;;;;;25.00;24.00;;;;;10.56;66.93;101653.66;4999869;28;53642;-73
2021/10/17 05:26:04;;;;;;;;;30.75;25.50;;;;;10.56;66.90;101663.34;4990008;28;45489;-73
2021/10/17 05:28:30;;;;;;;;;21.25;20.75;;;;;10.48;66.98;101650.81;4970633;28;54916;-74
2021/10/17 05:30:57;;;;;;;;;27.75;21.50;;;;;10.51;67.02;101655.31;4988688;28;47431;-73
2021/10/17 05:33:22;;;;;;;;;24.25;21.50;;;;;10.53;66.81;101657.97;4999867;28;45397;-72
2021/10/17 05:35:48;;;;;;;;;29.75;22.00;;;;;10.51;67.01;101657.06;4972297;28;56479;-72
2021/10/17 05:38:13;;;;;;;;;22.25;19.00;;;;;10.50;67.07;101664.09;4974495;28;50395;-72
2021/10/17 05:40:38;;;;;;;;;32.50;23.50;;;;;10.47;66.86;101656.97;4971806;28;59128;-73
2021/10/17 05:43:04;;;;;;;;;29.00;25.00;;;;;10.47;67.06;101666.63;4983234;28;58156;-73
2021/10/17 05:45:29;;;;;;;;;31.00;28.75;;;;;10.43;67.08;101663.00;4976360;28;56809;-73
2021/10/17 05:47:54;;;;;;;;;22.00;21.00;;;;;10.41;67.02;101655.94;4990497;28;57780;-73
2021/10/17 05:50:20;;;;;;;;;23.50;22.50;;;;;10.39;66.93;101668.22;4972172;28;59168;-74
2021/10/17 05:52:45;;;;;;;;;27.00;23.75;;;;;10.38;67.32;101669.03;4972080;28;57828;-73
2021/10/17 05:55:11;;;;;;;;;22.50;21.50;;;;;10.36;67.26;101663.72;4993764;28;54571;-75
2021/10/17 05:57:38;;;;;;;;;25.00;24.25;;;;;10.35;67.11;101671.63;4972548;28;46335;-74
2021/10/17 06:00:05;;;;;;;;;26.75;24.00;;;;;10.35;67.03;101672.50;4971357;28;45416;-75
2021/10/17 06:02:30;;;;;;;;;30.00;24.00;;;;;10.34;67.14;101675.13;4995044;28;45736;-73
2021/10/17 06:04:55;;;;;;;;;23.25;20.75;;;;;10.33;67.33;101661.00;4986060;28;51521;-74
2021/10/17 06:07:21;;;;;;;;;27.25;25.00;;;;;10.30;67.44;101657.41;4972068;28;55409;-73
2021/10/17 06:09:46;;;;;;;;;32.25;24.75;;;;;10.34;67.31;101662.81;4972146;28;46351;-72
2021/10/17 06:12:12;;;;;;;;;26.50;20.50;;;;;10.33;67.41;101668.91;4974991;28;56679;-72
2021/10/17 06:14:37;;;;;;;;;24.75;22.75;;;;;10.28;67.27;101664.38;4980605;28;46083;-71
2021/10/17 06:17:03;;;;;;;;;31.00;24.50;;;;;10.34;67.48;101675.13;4977190;28;45539;-73
2021/10/17 06:19:28;;;;;;;;;35.50;26.25;;;;;10.34;67.17;101672.47;4964948;28;46367;-72
2021/10/17 06:21:54;;;;;;;;;33.50;31.50;;;;;10.35;67.49;101674.25;4963120;28;52822;-73
2021/10/17 06:24:19;;;;;;;;;36.25;29.75;;;;;10.38;67.42;101683.13;4974515;28;45505;-72
2021/10/17 06:26:45;;;;;;;;;31.25;26.25;;;;;10.40;67.50;101685.81;4975203;28;45507;-73
2021/10/17 06:29:11;;;;;;;;;26.25;24.75;;;;;10.40;67.48;101689.34;4967110;28;46317;-72
2021/10/17 06:31:37;;;;;;;;;31.75;25.25;;;;;10.42;67.54;101684.09;4957773;28;45665;-72
2021/10/17 06:34:03;;;;;;;;;29.75;27.25;;;;;10.39;68.30;101694.59;4973910;28;45449;-75
2021/10/17 06:36:28;;;;;;;;;31.75;26.75;;;;;10.32;68.18;101684.72;4958014;28;45629;-76
2021/10/17 06:38:54;;;;;;;;;29.25;28.00;;;;;10.28;68.53;101698.69;4973078;28;47434;-76
2021/10/17 06:41:19;;;;;;;;;36.25;30.00;;;;;10.20;68.83;101694.06;4973186;28;54357;-76
2021/10/17 06:43:44;;;;;;;;;34.00;27.75;;;;;10.14;68.76;101708.88;4971216;28;45265;-76
2021/10/17 06:46:10;;;;;;;;;36.50;25.25;;;;;10.08;68.59;101712.22;4950904;28;45673;-76
2021/10/17 06:48:35;;;;;;;;;40.75;33.75;;;;;10.04;69.10;101710.34;4955684;28;61707;-75
2021/10/17 06:51:00;;;;;;;;;29.00;23.25;;;;;10.01;68.94;101717.28;4969570;28;45651;-76
2021/10/17 06:53:26;;;;;;;;;33.75;27.50;;;;;9.98;69.44;101716.34;4973762;28;52408;-75
2021/10/17 06:55:53;;;;;;;;;28.50;25.75;;;;;9.92;69.26;101710.91;4973172;28;48994;-76
2021/10/17 06:58:18;;;;;;;;;28.50;24.00;;;;;9.90;69.77;101723.16;4955368;28;46710;-75
2021/10/17 07:00:43;;;;;;;;;30.25;24.50;;;;;9.92;69.49;101720.59;4973564;28;60483;-75
2021/10/17 07:03:09;;;;;;;;;32.00;24.50;;;;;9.88;69.82;101719.59;4989678;28;45324;-72
2021/10/17 07:05:34;;;;;;;;;31.50;24.50;;;;;9.91;69.51;101732.88;4982489;28;54522;-73
2021/10/17 07:07:59;;;;;;;;;29.50;24.50;;;;;9.92;69.45;101717.94;4975093;28;61426;-72
2021/10/17 07:10:25;;;;;;;;;34.50;28.50;;;;;10.05;69.29;101727.97;4966659;28;52370;-72
2021/10/17 07:12:50;;;;;;;;;28.75;25.50;;;;;10.13;69.07;101717.63;5002534;28;45387;-74
2021/10/17 07:15:16;;;;;;;;;30.25;26.50;;;;;10.19;69.15;101718.69;4971439;28;49768;-72
2021/10/17 07:17:41;;;;;;;;;29.25;25.00;;;;;10.28;69.30;101719.81;4969950;28;49650;-72
2021/10/17 07:20:07;;;;;;;;;35.75;29.00;;;;;10.35;68.79;101721.78;4978287;28;58024;-75
2021/10/17 07:22:32;;;;;;;;;32.00;28.25;;;;;10.40;68.92;101722.78;4974585;28;45524;-75
2021/10/17 07:24:58;;;;;;;;;30.00;25.50;;;;;10.47;68.81;101717.69;4995067;28;45820;-75
2021/10/17 07:27:23;;;;;;;;;29.25;26.00;;;;;10.53;68.88;101716.94;4966352;28;45945;-76
2021/10/17 07:29:48;;;;;;;;;35.25;30.00;;;;;10.60;68.51;101715.34;4974623;28;45498;-73
2021/10/17 07:32:14;;;;;;;;;34.25;27.00;;;;;10.66;68.51;101721.69;4972351;28;45458;-75
2021/10/17 07:34:39;;;;;;;;;33.00;23.25;;;;;10.72;68.57;101731.53;5081580;23;45668;-73
2021/10/17 07:37:05;;;;;;;;;29.25;27.50;;;;;10.71;68.30;101716.53;4997008;28;53060;-72
2021/10/17 07:39:30;;;;;;;;;28.75;27.50;;;;;10.83;68.48;101730.03;4989677;28;55676;-73
2021/10/17 07:41:55;;;;;;;;;33.50;30.25;;;;;10.87;68.26;101728.38;4989365;28;45579;-72
2021/10/17 07:44:21;;;;;;;;;36.75;31.25;;;;;10.92;68.38;101729.34;4992393;28;45510;-73
2021/10/17 07:46:46;;;;;;;;;30.75;25.00;;;;;10.96;68.17;101729.47;4978075;28;46709;-75
2021/10/17 07:49:12;;;;;;;;;31.25;26.75;;;;;11.00;68.33;101722.50;4975881;28;61532;-72
2021/10/17 07:51:37;;;;;;;;;29.75;29.00;;;;;11.06;68.20;101724.41;5044559;28;54936;-73
2021/10/17 07:54:02;;;;;;;;;35.50;30.50;;;;;11.11;68.21;101726.28;4990037;28;45612;-72
2021/10/17 07:56:28;;;;;;;;;32.75;27.00;;;;;11.15;68.05;101721.97;4987301;28;47911;-73
2021/10/17 07:58:54;;;;;;;;;32.50;26.75;;;;;11.20;67.91;101733.56;5014035;28;45273;-72
2021/10/17 08:01:19;;;;;;;;;29.25;24.50;;;;;11.24;67.86;101720.44;4985512;28;45363;-75
2021/10/17 08:03:45;;;;;;;;;34.75;30.25;;;;;11.31;67.83;101731.16;4999786;28;45579;-73
2021/10/17 08:06:10;;;;;;;;;33.25;29.50;;;;;11.36;67.87;101726.84;4977343;28;46510;-73
2021/10/17 08:08:35;;;;;;;;;32.50;32.00;;;;;11.42;67.66;101719.94;4970374;28;45281;-75
2021/10/17 08:11:01;;;;;;;;;36.75;31.25;;;;;11.48;67.73;101711.25;5005853;28;45656;-75
2021/10/17 08:13:28;;;;;;;;;37.50;34.00;;;;;11.54;67.87;101717.56;4981814;28;45532;-72
2021/10/17 08:15:53;;;;;;;;;36.25;28.75;;;;;11.63;67.67;101715.97;4984555;28;45807;-72
2021/10/17 08:18:20;;;;;;;;;24.25;23.50;;;;;11.71;67.52;101727.59;4972330;28;45384;-74
2021/10/17 08:20:45;;;;;;;;;22.00;20.50;;;;;11.75;66.92;101719.75;4971568;28;45555;-74
2021/10/17 08:23:10;;;;;;;;;24.25;21.50;;;;;11.91;66.96;101742.16;4976419;28;45367;-75
2021/10/17 08:25:38;;;;;;;;;25.00;22.25;;;;;11.99;67.08;101737.94;4988992;28;45622;-76
2021/10/17 08:28:03;;;;;;;;;32.33;22.33;;;;;12.09;67.17;101727.50;4974624;28;45330;-73
2021/10/17 08:30:29;;;;;;;;;22.00;22.00;;;;;12.16;66.80;101724.13;4969533;28;46033;-73
2021/10/17 08:32:54;;;;;;;;;24.00;20.00;;;;;12.24;66.78;101720.72;4993274;28;53793;-72
2021/10/17 08:35:19;;;;;;;;;21.50;18.25;;;;;12.35;66.32;101720.91;4974217;28;61818;-72
2021/10/17 08:37:45;;;;;;;;;20.33;19.00;;;;;12.41;65.66;101706.91;4999029;28;53296;-73
2021/10/17 08:40:11;;;;;;;;;27.00;23.67;;;;;12.49;65.17;101705.28;4992540;28;45451;-73
2021/10/17 08:42:36;;;;;;;;;28.33;18.00;;;;;12.54;65.05;101704.50;5008250;28;45653;-75
2021/10/17 08:45:06;;;;;;;;;22.00;20.00;;;;;12.63;65.21;101710.84;4956575;28;55033;-75
2021/10/17 08:47:32;;;;;;;;;24.67;19.00;;;;;12.69;64.67;101708.28;4993130;28;45446;-72
2021/10/17 08:49:57;;;;;;;;;20.00;19.67;;;;;12.76;64.43;101699.56;4981745;28;45554;-75
2021/10/17 08:52:23;;;;;;;;;25.00;19.67;;;;;12.83;63.81;101712.03;4982644;28;45470;-75
2021/10/17 08:54:48;;;;;;;;;22.67;20.33;;;;;12.88;63.76;101712.97;4996259;28;53159;-75
2021/10/17 08:57:14;;;;;;;;;17.33;17.33;;;;;12.93;63.79;101713.06;5010838;28;45370;-75
2021/10/17 08:59:49;;;;;;;;;17.33;14.00;;;;;12.98;63.52;101714.03;4997283;28;45219;-73
2021/10/17 09:02:24;;;;;;;;;25.00;20.67;;;;;13.01;63.29;101717.63;4975963;28;45521;-73
2021/10/17 09:05:09;;;;;;;;;19.00;18.33;;;;;13.07;62.69;101724.78;5009858;28;46532;-74
2021/10/17 09:07:34;;;;;;;;;24.00;20.00;;;;;13.04;62.58;101703.50;4987133;28;45457;-75
2021/10/17 09:10:07;;;;;;;;;20.33;18.00;;;;;13.13;62.92;101710.72;5024939;28;53123;-73
2021/10/17 09:12:33;;;;;;;;;23.33;19.00;;;;;13.17;62.76;101707.25;4947830;28;45540;-75
2021/10/17 09:15:24;;;;;;;;;21.33;20.33;;;;;13.28;61.65;101710.97;4977213;28;46161;-73
2021/10/17 09:18:11;;;;;;;;;22.33;21.00;;;;;13.27;62.01;101701.25;4984351;28;45339;-72
2021/10/17 09:20:46;;;;;;;;;24.00;17.67;;;;;13.39;62.65;101709.34;5010258;28;45288;-76
2021/10/17 09:23:15;;;;;;;;;24.67;22.00;;;;;13.45;61.95;101701.47;4997683;28;45354;-73
2021/10/17 09:25:41;;;;;;;;;24.00;20.67;;;;;13.51;61.94;101709.50;4973421;28;46768;-73
2021/10/17 09:28:16;;;;;;;;;20.33;19.00;;;;;13.56;62.16;101706.91;5026007;28;45365;-73
2021/10/17 09:30:42;;;;;;;;;25.33;21.00;;;;;13.64;61.81;101710.56;4981750;28;45410;-72
2021/10/17 09:33:18;;;;;;;;;27.00;22.33;;;;;13.67;61.01;101694.66;5013251;28;45430;-73
2021/10/17 09:35:44;;;;;;;;;20.33;18.67;;;;;13.77;61.38;101699.22;5006222;28;47192;-74
2021/10/17 09:38:09;;;;;;;;;18.33;14.33;;;;;13.82;61.59;101697.50;4979393;28;59732;-73
2021/10/17 09:40:36;;;;;;;;;18.67;16.00;;;;;13.90;60.85;101697.59;5003401;28;45360;-72
2021/10/17 09:43:06;;;;;;;;;18.33;17.67;;;;;13.96;60.73;101702.09;4985150;28;45358;-74
2021/10/17 09:45:31;;;;;;;;;19.00;17.00;;;;;14.00;60.76;101687.97;4974506;28;46724;-74
2021/10/17 09:47:56;;;;;;;;;16.67;16.00;;;;;14.07;60.08;101695.13;4997075;28;45462;-73
2021/10/17 09:50:22;;;;;;;;;14.67;14.67;;;;;14.13;59.64;101693.44;5024905;28;52944;-73
2021/10/17 09:52:53;;;;;;;;;19.67;17.33;;;;;14.22;59.92;101694.38;4999511;28;45343;-75
2021/10/17 09:55:19;;;;;;;;;17.00;16.00;;;;;14.28;59.57;101686.50;5001296;28;46589;-73
2021/10/17 09:57:44;;;;;;;;;18.33;13.00;;;;;14.43;58.94;101697.25;4989303;28;54549;-73
2021/10/17 10:00:10;;;;;;;;;20.33;15.33;;;;;14.52;58.97;101686.72;4988794;28;52696;-73
2021/10/17 10:02:35;;;;;;;;;16.67;14.67;;;;;14.66;58.57;101694.84;4983108;28;45646;-73
2021/10/17 10:05:01;;;;;;;;;20.67;16.33;;;;;14.72;58.30;101691.34;4965705;28;52750;-73
2021/10/17 10:07:26;;;;;;;;;18.00;14.67;;;;;14.75;56.18;101700.19;5002969;28;53767;-75
2021/10/17 10:09:53;;;;;;;;;16.67;14.00;;;;;14.77;56.82;101702.88;4974978;28;45904;-73
2021/10/17 10:12:19;;;;;;;;;16.00;14.67;;;;;14.77;58.18;101693.16;4992980;28;45570;-73
2021/10/17 10:14:48;;;;;;;;;15.33;14.00;;;;;14.80;57.37;101692.25;4987324;28;47771;-73
2021/10/17 10:17:17;;;;;;;;;14.00;13.00;;;;;14.81;56.80;101692.28;4987945;28;45362;-73
2021/10/17 10:19:43;;;;;;;;;14.00;14.00;;;;;14.86;56.75;101695.88;4997604;28;45415;-73
2021/10/17 10:22:08;;;;;;;;;17.00;15.67;;;;;14.90;56.93;101691.44;4965653;28;45339;-74
2021/10/17 10:24:34;;;;;;;;;13.33;12.00;;;;;14.95;55.87;101703.00;4959649;28;58948;-73
2021/10/17 10:27:00;;;;;;;;;16.67;15.33;;;;;14.98;56.46;101695.06;5013874;28;45379;-74
2021/10/17 10:29:29;;;;;;;;;14.33;11.00;;;;;15.03;56.20;101689.78;4958037;28;45455;-74
2021/10/17 10:32:00;;;;;;;;;13.00;12.00;;;;;15.08;55.62;101683.63;4996527;28;45389;-73
2021/10/17 10:34:25;;;;;;;;;12.00;12.00;;;;;15.19;55.98;101687.22;4990322;28;46344;-73
2021/10/17 10:36:51;;;;;;;;;10.00;10.00;;;;;15.21;56.17;101673.91;4994988;28;45321;-73
2021/10/17 10:39:18;;;;;;;;;14.67;11.33;;;;;15.27;55.09;101678.38;4976119;28;45449;-74
2021/10/17 10:41:50;;;;;;;;;8.67;8.33;;;;;15.39;55.31;101682.00;4975888;28;45543;-73
2021/10/17 10:44:32;;;;;;;;;12.00;11.00;;;;;15.48;54.84;101674.94;4989321;28;47602;-76
2021/10/17 10:46:59;;;;;;;;;14.33;10.67;;;;;15.59;54.68;101678.53;4983838;28;45501;-76
2021/10/17 10:49:40;;;;;;;;;17.00;13.00;;;;;15.68;53.82;101682.16;5002572;28;45593;-76
2021/10/17 10:52:36;;;;;;;;;15.00;15.00;;;;;15.78;54.64;101682.19;4986552;28;45573;-74
2021/10/17 10:55:03;;;;;;;;;11.67;11.00;;;;;15.88;54.11;101676.91;4977510;28;45743;-74
2021/10/17 10:57:36;;;;;;;;;11.00;11.00;;;;;15.91;54.13;101668.00;4987098;28;45436;-74
2021/10/17 11:00:06;;;;;;;;;10.00;10.00;;;;;16.06;53.94;101681.38;4968481;28;45541;-75
2021/10/17 11:02:32;;;;;;;;;10.67;10.33;;;;;16.14;54.00;101679.63;4987906;28;45456;-74
2021/10/17 11:05:16;;;;;;;;;14.67;11.67;;;;;16.21;53.59;101676.06;4975276;28;46837;-74